Time;durP1;ratioP1;P1;durP2;ratioP2;P2;SDS_P1;SDS_P2;PMS_P1;PMS_P2;Temp;Humidity;BMP_temperature;BMP_pressure;BME280_temperature;BME280_humidity;BME280_pressure;Samples;Min_cycle;Max_cycle;Signal;HPM_P1;HPM_P2
2021/12/05 00:17:02;;;;;;;6.13;2.03;;;4.10;99.90;;;;;;4904572;29;20051;-78
2021/12/05 00:22:28;;;;;;;5.90;1.70;;;4.30;99.90;;;;;;4927145;29;20055;-79
2021/12/05 00:24:58;;;;;;;4.30;1.45;;;4.30;99.90;;;;;;4923702;29;20536;-80
2021/12/05 00:27:33;;;;;;;8.20;2.10;;;4.30;99.90;;;;;;4911440;29;20039;-81
2021/12/05 00:35:35;;;;;;;6.63;1.85;;;4.30;99.90;;;;;;4907443;29;20048;-79
2021/12/05 01:17:20;;;;;;;9.80;2.47;;;4.60;99.90;;;;;;4924168;29;20055;-78
2021/12/05 01:19:47;;;;;;;5.32;2.30;;;4.20;99.90;;;;;;4900038;29;20044;-78
2021/12/05 01:22:16;;;;;;;8.93;2.80;;;5.30;99.90;;;;;;4930295;29;20047;-78
2021/12/05 01:30:06;;;;;;;9.18;2.80;;;4.40;99.90;;;;;;4911355;29;20052;-79
2021/12/05 01:32:54;;;;;;;7.13;3.00;;;4.20;99.90;;;;;;4907650;29;20062;-78
2021/12/05 01:41:51;;;;;;;4.07;2.13;;;4.30;99.90;;;;;;4941711;29;20046;-79
2021/12/05 02:02:26;;;;;;;5.32;2.20;;;3.80;99.90;;;;;;4923896;29;20052;-79
2021/12/05 02:15:58;;;;;;;5.78;2.80;;;3.60;99.90;;;;;;4910431;29;20075;-78
2021/12/05 02:37:35;;;;;;;7.38;3.80;;;3.70;99.90;;;;;;4910204;29;20083;-78
2021/12/05 02:42:46;;;;;;;10.80;3.95;;;3.30;99.90;;;;;;4918481;29;20082;-78
2021/12/05 02:45:13;;;;;;;7.60;3.78;;;3.30;99.90;;;;;;4910267;29;20039;-79
2021/12/05 02:47:40;;;;;;;8.27;3.42;;;3.30;99.90;;;;;;4926626;29;20052;-79
2021/12/05 02:50:10;;;;;;;11.43;4.65;;;3.30;99.90;;;;;;4907996;29;20114;-80
2021/12/05 02:52:40;;;;;;;9.90;4.68;;;3.30;99.90;;;;;;4928166;29;20063;-78
2021/12/05 02:55:25;;;;;;;9.27;4.38;;;3.40;99.90;;;;;;4924764;29;20055;-78
2021/12/05 02:57:59;;;;;;;10.25;5.25;;;3.30;99.90;;;;;;4918086;29;20268;-79
2021/12/05 03:03:01;;;;;;;;;;;3.30;99.90;;;;;;4925266;29;20071;-79
2021/12/05 03:05:27;;;;;;;15.40;5.55;;;3.80;99.90;;;;;;4923752;29;19927;-78
2021/12/05 03:07:58;;;;;;;13.70;6.00;;;3.30;99.90;;;;;;4911147;29;20044;-79
2021/12/05 03:10:24;;;;;;;12.43;5.93;;;3.80;99.90;;;;;;4913427;29;20075;-79
2021/12/05 03:12:50;;;;;;;13.07;6.20;;;4.10;99.90;;;;;;4912491;29;20068;-77
2021/12/05 03:15:18;;;;;;;13.80;5.30;;;3.30;99.90;;;;;;4928370;29;20059;-79
2021/12/05 03:17:44;;;;;;;14.60;6.53;;;3.80;99.90;;;;;;4937339;29;20776;-78
2021/12/05 03:20:11;;;;;;;14.10;6.38;;;3.40;99.90;;;;;;4908616;29;20048;-79
2021/12/05 03:22:37;;;;;;;17.65;7.03;;;3.40;99.90;;;;;;4923357;29;20134;-79
2021/12/05 03:25:05;;;;;;;12.07;5.72;;;3.40;99.90;;;;;;4923604;29;20136;-78
2021/12/05 03:27:32;;;;;;;17.00;6.57;;;3.40;99.90;;;;;;4928468;29;20126;-78
2021/12/05 03:29:58;;;;;;;14.43;6.40;;;3.90;99.90;;;;;;4887283;29;20055;-80
2021/12/05 03:32:24;;;;;;;14.48;6.47;;;3.40;99.90;;;;;;4927114;29;20083;-79
2021/12/05 03:34:50;;;;;;;12.50;5.88;;;3.70;99.90;;;;;;4922515;29;20048;-79
2021/12/05 03:37:16;;;;;;;12.13;6.10;;;4.40;99.90;;;;;;4911712;29;20135;-79
2021/12/05 03:39:42;;;;;;;13.60;5.55;;;4.00;99.90;;;;;;4906223;29;20073;-79
2021/12/05 03:42:08;;;;;;;10.55;5.80;;;4.20;99.90;;;;;;4920634;29;20043;-80
2021/12/05 03:44:37;;;;;;;14.07;6.20;;;3.20;99.90;;;;;;4905260;29;20035;-82
2021/12/05 03:47:06;;;;;;;11.52;6.10;;;3.20;99.90;;;;;;4938709;28;20056;-78
2021/12/05 03:49:32;;;;;;;13.40;6.22;;;3.20;99.90;;;;;;4923484;29;20448;-79
2021/12/05 03:52:03;;;;;;;11.18;6.32;;;3.20;99.90;;;;;;4904880;29;20520;-78
2021/12/05 03:54:29;;;;;;;13.05;6.45;;;3.60;99.90;;;;;;4930282;29;20047;-79
2021/12/05 03:56:56;;;;;;;14.32;6.32;;;3.10;99.90;;;;;;4913421;29;20056;-79
2021/12/05 03:59:24;;;;;;;19.17;6.65;;;3.30;99.90;;;;;;4895500;29;20374;-78
2021/12/05 04:01:50;;;;;;;13.13;5.60;;;4.20;99.90;;;;;;4904080;29;20052;-78
2021/12/05 04:04:17;;;;;;;12.80;6.38;;;3.10;99.90;;;;;;4902835;29;20126;-79
2021/12/05 04:06:46;;;;;;;15.93;6.75;;;3.10;99.90;;;;;;4903009;29;20506;-78
2021/12/05 04:09:14;;;;;;;21.90;7.18;;;3.00;99.90;;;;;;4887942;29;20048;-78
2021/12/05 04:11:46;;;;;;;12.40;5.97;;;3.00;99.90;;;;;;4900359;29;20063;-78
2021/12/05 04:14:14;;;;;;;14.23;5.93;;;3.00;99.90;;;;;;4903466;29;20083;-79
2021/12/05 04:16:42;;;;;;;13.55;6.57;;;3.10;99.90;;;;;;4888266;29;20056;-78
2021/12/05 04:19:08;;;;;;;16.67;6.72;;;2.90;99.90;;;;;;4893216;29;20060;-78
2021/12/05 04:21:36;;;;;;;14.48;6.40;;;3.10;99.90;;;;;;4899092;29;20055;-79
2021/12/05 04:24:04;;;;;;;12.32;6.43;;;2.90;99.90;;;;;;4887255;29;20185;-80
2021/12/05 04:26:30;;;;;;;12.25;6.70;;;2.80;99.90;;;;;;4903942;29;20131;-79
2021/12/05 04:28:56;;;;;;;12.45;7.63;;;3.40;99.90;;;;;;4902434;29;20261;-80
2021/12/05 04:31:22;;;;;;;17.13;8.52;;;2.80;99.90;;;;;;4904492;29;20037;-79
2021/12/05 04:33:50;;;;;;;18.13;7.63;;;4.10;99.90;;;;;;4890638;29;20056;-81
2021/12/05 04:36:17;;;;;;;14.38;7.47;;;2.80;99.90;;;;;;4903124;29;20044;-80
2021/12/05 04:38:43;;;;;;;11.68;7.20;;;4.00;99.90;;;;;;4893220;29;20106;-80
2021/12/05 04:41:09;;;;;;;17.25;8.05;;;3.70;99.90;;;;;;4904050;29;20490;-78
2021/12/05 04:43:38;;;;;;;23.20;8.82;;;2.70;99.90;;;;;;4891445;29;20135;-78
2021/12/05 04:46:24;;;;;;;17.70;8.00;;;2.70;99.90;;;;;;4891231;29;20044;-79
2021/12/05 04:48:52;;;;;;;14.90;7.80;;;3.00;99.90;;;;;;4910387;29;20044;-79
2021/12/05 04:51:20;;;;;;;16.13;7.75;;;2.70;99.90;;;;;;4903500;29;20142;-79
2021/12/05 04:53:46;;;;;;;16.98;8.48;;;3.80;99.90;;;;;;4911350;29;20040;-79
2021/12/05 04:56:13;;;;;;;18.45;8.60;;;2.70;99.90;;;;;;4904989;29;20074;-78
2021/12/05 04:58:39;;;;;;;16.88;8.60;;;3.20;99.90;;;;;;4921872;29;20055;-81
2021/12/05 05:01:05;;;;;;;20.90;8.52;;;2.70;99.90;;;;;;4925006;29;20099;-79
2021/12/05 05:03:33;;;;;;;14.77;8.18;;;3.20;99.90;;;;;;4923008;29;20492;-79
2021/12/05 05:06:05;;;;;;;24.60;9.48;;;3.70;99.90;;;;;;4923515;29;20048;-78
2021/12/05 05:08:32;;;;;;;18.98;8.70;;;2.80;99.90;;;;;;4925883;29;20053;-79
2021/12/05 05:11:05;;;;;;;20.02;9.73;;;2.80;99.90;;;;;;4924355;29;20062;-79
2021/12/05 05:13:32;;;;;;;23.90;10.25;;;3.70;99.90;;;;;;4925680;29;20512;-78
2021/12/05 05:15:58;;;;;;;20.10;10.10;;;2.90;99.90;;;;;;4910995;29;20051;-79
2021/12/05 05:18:29;;;;;;;25.02;9.15;;;3.90;99.90;;;;;;4911572;29;20110;-79
2021/12/05 05:21:41;;;;;;;23.08;9.75;;;3.00;99.90;;;;;;4895004;29;20569;-80
2021/12/05 05:24:07;;;;;;;16.48;9.13;;;3.60;99.90;;;;;;4925402;29;20462;-79
2021/12/05 05:30:04;;;;;;;22.17;10.20;;;3.10;99.90;;;;;;4923277;29;20055;-79
2021/12/05 05:43:53;;;;;;;28.17;11.30;;;3.30;99.90;;;;;;4916970;29;20090;-79
2021/12/05 05:46:23;;;;;;;30.20;9.75;;;3.80;99.90;;;;;;4942124;29;20051;-79
2021/12/05 05:51:15;;;;;;;27.60;10.45;;;4.50;99.90;;;;;;4914522;29;20062;-79
2021/12/05 05:53:43;;;;;;;27.20;10.27;;;3.70;99.90;;;;;;4926438;29;20813;-80
2021/12/05 05:56:13;;;;;;;26.85;9.85;;;3.30;99.90;;;;;;4925307;29;20102;-79
2021/12/05 05:58:44;;;;;;;24.17;10.13;;;3.40;99.90;;;;;;4912952;29;20130;-79
2021/12/05 06:01:20;;;;;;;23.42;10.05;;;3.40;99.90;;;;;;4927451;29;20497;-79
2021/12/05 06:03:46;;;;;;;20.35;10.20;;;4.10;99.90;;;;;;4927185;29;20047;-79
2021/12/05 06:06:14;;;;;;;21.17;9.07;;;3.40;99.90;;;;;;4926935;29;20110;-77
2021/12/05 06:08:40;;;;;;;22.85;10.15;;;3.40;99.90;;;;;;4927065;29;20543;-78
2021/12/05 06:11:09;;;;;;;27.92;10.15;;;4.10;99.90;;;;;;4932582;29;20054;-78
2021/12/05 06:13:36;;;;;;;21.65;10.07;;;3.40;99.90;;;;;;4927146;29;20150;-79
2021/12/05 06:16:02;;;;;;;22.15;10.05;;;3.40;99.90;;;;;;4917637;29;20051;-78
2021/12/05 06:18:28;;;;;;;26.65;9.63;;;3.50;99.90;;;;;;4927350;29;20083;-78
2021/12/05 06:20:55;;;;;;;24.27;9.68;;;3.40;99.90;;;;;;4931055;29;20051;-79
2021/12/05 06:23:21;;;;;;;21.33;9.48;;;4.20;99.90;;;;;;4932292;29;20055;-79
2021/12/05 06:25:50;;;;;;;22.00;10.10;;;4.50;99.90;;;;;;4927141;29;20039;-81
2021/12/05 06:28:22;;;;;;;22.83;9.77;;;3.60;99.90;;;;;;4943183;29;20555;-79
2021/12/05 06:30:55;;;;;;;21.80;10.35;;;3.50;99.90;;;;;;4924581;29;20130;-79
2021/12/05 06:41:59;;;;;;;18.90;9.75;;;3.80;99.90;;;;;;4912802;29;20433;-80
2021/12/05 06:47:12;;;;;;;19.85;8.82;;;4.90;99.90;;;;;;4940507;29;20084;-79
2021/12/05 06:49:39;;;;;;;21.70;9.68;;;3.60;99.90;;;;;;4941880;29;20122;-79
2021/12/05 06:52:07;;;;;;;17.15;9.68;;;4.00;99.90;;;;;;4906287;29;20409;-79
2021/12/05 06:54:34;;;;;;;24.52;9.73;;;3.60;99.90;;;;;;4924367;29;20047;-80
2021/12/05 06:56:59;;;;;;;21.25;9.77;;;3.60;99.90;;;;;;4917924;29;20047;-81
2021/12/05 06:59:25;;;;;;;19.95;9.77;;;3.60;99.90;;;;;;4907468;29;20035;-80
2021/12/05 07:01:51;;;;;;;24.38;8.93;;;3.30;99.90;;;;;;4931242;29;20446;-79
2021/12/05 07:04:42;;;;;;;20.40;9.32;;;4.80;99.90;;;;;;4928388;29;20138;-79
2021/12/05 07:07:15;;;;;;;21.25;9.27;;;3.60;99.90;;;;;;4926465;29;20055;-79
2021/12/05 07:09:41;;;;;;;19.20;8.20;;;3.90;99.90;;;;;;4925774;29;20043;-78
2021/12/05 07:14:43;;;;;;;21.08;9.10;;;3.70;99.90;;;;;;4932040;29;20436;-78
2021/12/05 07:19:57;;;;;;;20.48;9.80;;;4.00;99.90;;;;;;4913604;29;20056;-78
2021/12/05 07:22:47;;;;;;;21.20;9.35;;;3.70;99.90;;;;;;4910204;29;20043;-77
2021/12/05 07:25:26;;;;;;;18.40;9.45;;;3.70;99.90;;;;;;4923310;29;20054;-80
2021/12/05 07:44:04;;;;;;;20.27;8.77;;;3.90;99.90;;;;;;4924168;29;20202;-78
2021/12/05 07:46:30;;;;;;;17.50;8.70;;;3.70;99.90;;;;;;4922272;29;20466;-77
2021/12/05 07:48:55;;;;;;;17.65;8.82;;;4.40;99.90;;;;;;4924346;29;20051;-79
2021/12/05 07:51:26;;;;;;;16.85;9.27;;;3.70;99.90;;;;;;4924314;29;20138;-77
2021/12/05 07:54:05;;;;;;;19.60;9.20;;;3.70;99.90;;;;;;4909636;29;20138;-80
2021/12/05 07:59:34;;;;;;;14.10;9.35;;;4.30;99.90;;;;;;4924085;29;20048;-77
2021/12/05 08:16:00;;;;;;;17.17;9.85;;;3.90;99.90;;;;;;4927502;29;20047;-79
2021/12/05 08:18:27;;;;;;;19.35;9.43;;;3.80;99.90;;;;;;4924730;29;20525;-79
2021/12/05 08:20:53;;;;;;;17.90;10.07;;;3.90;99.90;;;;;;4923285;29;20051;-80
2021/12/05 08:23:22;;;;;;;17.98;10.40;;;3.70;99.90;;;;;;4923717;29;20076;-79
2021/12/05 08:25:55;;;;;;;20.90;9.93;;;4.70;99.90;;;;;;4922128;29;20103;-79
2021/12/05 08:28:44;;;;;;;19.15;10.07;;;4.20;99.90;;;;;;4924072;29;20078;-79
2021/12/05 09:28:11;;;;;;;20.02;9.20;;;5.10;99.90;;;;;;4943037;29;20082;-79
2021/12/05 09:52:54;;;;;;;19.92;9.35;;;4.00;99.90;;;;;;4930703;29;20146;-79
2021/12/05 10:09:06;;;;;;;17.23;9.13;;;4.20;99.90;;;;;;4914412;29;20059;-79
2021/12/05 10:11:54;;;;;;;15.48;8.57;;;4.80;99.90;;;;;;4914152;29;20477;-78
2021/12/05 10:14:34;;;;;;;18.67;9.32;;;4.20;99.90;;;;;;4929253;29;20043;-80
2021/12/05 10:33:43;;;;;;;17.42;9.40;;;4.30;99.90;;;;;;4943407;29;20047;-79
2021/12/05 10:38:52;;;;;;;18.42;9.35;;;4.30;99.90;;;;;;4910183;29;20423;-79
2021/12/05 10:44:06;;;;;;;17.92;9.88;;;4.30;99.90;;;;;;4942176;29;20056;-80
2021/12/05 10:46:33;;;;;;;19.58;9.88;;;4.30;99.90;;;;;;4926782;29;20059;-79
2021/12/05 10:49:03;;;;;;;17.85;10.00;;;4.30;99.90;;;;;;4910931;29;20413;-79
2021/12/05 10:51:40;;;;;;;17.35;8.57;;;5.00;99.90;;;;;;4927485;29;20058;-79
2021/12/05 10:54:19;;;;;;;16.20;10.13;;;4.40;99.90;;;;;;4932234;29;20173;-79
2021/12/05 10:57:00;;;;;;;15.65;9.32;;;4.30;99.90;;;;;;4924775;29;20196;-79
2021/12/05 10:59:36;;;;;;;14.38;9.73;;;5.10;99.90;;;;;;4933596;29;20051;-80
2021/12/05 11:02:06;;;;;;;20.63;9.95;;;4.30;99.90;;;;;;4926213;29;20051;-78
2021/12/05 11:04:35;;;;;;;17.15;10.05;;;4.30;99.90;;;;;;4927545;29;20130;-80
2021/12/05 11:07:06;;;;;;;15.00;9.45;;;5.30;99.90;;;;;;4933188;29;20054;-78
2021/12/05 11:09:41;;;;;;;18.83;9.85;;;4.30;99.90;;;;;;4912456;29;20084;-79
2021/12/05 11:12:23;;;;;;;21.33;10.95;;;4.30;99.90;;;;;;4942891;29;20055;-80
2021/12/05 11:15:01;;;;;;;18.40;10.23;;;4.30;99.90;;;;;;4932967;29;20047;-79
2021/12/05 11:17:28;;;;;;;16.13;9.30;;;4.30;99.90;;;;;;4925196;29;20051;-78
2021/12/05 11:20:17;;;;;;;16.60;9.93;;;4.30;99.90;;;;;;4909258;29;20082;-79
2021/12/05 11:22:46;;;;;;;17.25;10.38;;;4.30;99.90;;;;;;4927960;29;20047;-80
2021/12/05 11:25:18;;;;;;;17.95;9.35;;;4.30;99.90;;;;;;4931253;29;20050;-78
2021/12/05 11:27:45;;;;;;;17.45;9.57;;;4.30;99.90;;;;;;4927937;29;20043;-78
2021/12/05 11:30:31;;;;;;;19.08;10.27;;;4.70;99.90;;;;;;4926405;29;20508;-79
2021/12/05 11:33:03;;;;;;;16.27;9.33;;;4.30;99.90;;;;;;4942495;29;20083;-79
2021/12/05 11:35:42;;;;;;;16.65;9.68;;;4.30;99.90;;;;;;4926877;29;20440;-78
2021/12/05 11:38:29;;;;;;;17.83;9.48;;;4.30;99.90;;;;;;4926007;29;20048;-79
2021/12/05 11:41:02;;;;;;;16.70;9.55;;;4.70;99.90;;;;;;4929306;29;20489;-80
2021/12/05 11:43:28;;;;;;;16.00;9.52;;;4.40;99.90;;;;;;4932064;29;20476;-79
2021/12/05 11:46:05;;;;;;;17.90;9.27;;;4.50;99.90;;;;;;4926398;29;20047;-79
2021/12/05 11:48:41;;;;;;;17.63;9.57;;;4.40;99.90;;;;;;4914125;29;20119;-78
2021/12/05 11:51:36;;;;;;;;;;;4.50;99.90;;;;;;4933836;29;20106;-81
2021/12/05 11:54:23;;;;;;;16.02;9.10;;;4.50;99.90;;;;;;4915944;29;19922;-80
2021/12/05 11:56:53;;;;;;;19.85;9.32;;;4.50;99.90;;;;;;4924834;29;20055;-79
2021/12/05 11:59:21;;;;;;;16.45;10.15;;;4.60;99.90;;;;;;4930567;29;20062;-82
2021/12/05 12:01:51;;;;;;;12.77;8.30;;;4.50;99.90;;;;;;4911490;29;20043;-77
2021/12/05 12:04:24;;;;;;;14.60;9.10;;;5.90;99.90;;;;;;4925486;29;20486;-77
2021/12/05 12:07:10;;;;;;;16.83;9.82;;;4.60;99.90;;;;;;4941513;28;20075;-77
2021/12/05 12:09:36;;;;;;;14.77;9.50;;;4.60;99.90;;;;;;4932183;29;20131;-77
2021/12/05 12:12:02;;;;;;;17.23;9.70;;;4.60;99.90;;;;;;4923687;29;20133;-76
2021/12/05 12:14:28;;;;;;;19.20;9.45;;;4.60;99.90;;;;;;4914664;29;20048;-77
2021/12/05 12:16:56;;;;;;;15.88;9.27;;;4.60;99.90;;;;;;4924271;29;20137;-77
2021/12/05 12:19:23;;;;;;;15.57;8.73;;;5.00;99.90;;;;;;4924922;29;20055;-77
2021/12/05 12:21:52;;;;;;;16.15;9.60;;;4.60;99.90;;;;;;4930126;29;20054;-77
2021/12/05 12:24:18;;;;;;;17.45;9.80;;;5.40;99.90;;;;;;4908873;29;20061;-77
2021/12/05 12:26:44;;;;;;;17.67;9.75;;;4.60;99.90;;;;;;4924269;29;20055;-77
2021/12/05 12:29:12;;;;;;;17.08;8.98;;;4.70;99.90;;;;;;4924114;29;20050;-79
2021/12/05 12:31:41;;;;;;;20.83;9.77;;;4.80;99.90;;;;;;4924343;29;20046;-76
2021/12/05 12:34:13;;;;;;;14.95;9.75;;;4.70;99.90;;;;;;4931050;29;20047;-76
2021/12/05 12:36:50;;;;;;;15.80;9.15;;;4.60;99.90;;;;;;4925674;29;20051;-78
2021/12/05 12:39:25;;;;;;;15.85;9.35;;;4.60;99.90;;;;;;4929396;29;20047;-77
2021/12/05 12:42:20;;;;;;;15.38;9.38;;;5.60;99.90;;;;;;4925079;29;20086;-76
2021/12/05 12:44:58;;;;;;;17.77;9.55;;;4.70;99.90;;;;;;4927576;29;20513;-77
2021/12/05 12:47:43;;;;;;;16.25;8.63;;;5.60;99.90;;;;;;4928028;29;20052;-76
2021/12/05 12:50:35;;;;;;;17.55;9.40;;;4.70;99.90;;;;;;4944168;29;20077;-76
2021/12/05 12:53:15;;;;;;;15.70;9.25;;;4.70;99.90;;;;;;4929390;29;20049;-77
2021/12/05 12:55:50;;;;;;;17.23;9.05;;;4.70;99.90;;;;;;4943781;29;20114;-76
2021/12/05 12:58:34;;;;;;;15.77;9.32;;;4.70;99.90;;;;;;4927395;29;20074;-77
2021/12/05 13:01:16;;;;;;;17.33;9.43;;;4.80;99.90;;;;;;4926583;29;20075;-77
2021/12/05 13:04:26;;;;;;;18.52;9.38;;;4.70;99.90;;;;;;4943286;29;20075;-76
2021/12/05 13:12:44;;;;;;;18.00;9.88;;;4.70;99.90;;;;;;4928544;29;20059;-77
2021/12/05 13:15:16;;;;;;;13.65;8.30;;;4.70;99.90;;;;;;4928562;29;20047;-76
2021/12/05 13:17:49;;;;;;;13.52;9.32;;;4.70;99.90;;;;;;4911137;28;20046;-78
2021/12/05 13:20:23;;;;;;;18.27;8.82;;;4.70;99.90;;;;;;4942584;28;20047;-80
2021/12/05 13:23:08;;;;;;;16.73;8.80;;;5.00;99.90;;;;;;4912845;29;20070;-78
2021/12/05 13:25:56;;;;;;;15.13;8.60;;;5.40;99.90;;;;;;4923144;29;20055;-78
2021/12/05 13:29:06;;;;;;;15.10;8.70;;;4.70;99.90;;;;;;4942762;29;20104;-77
2021/12/05 13:31:54;;;;;;;12.02;8.15;;;4.70;99.90;;;;;;4916292;29;20127;-77
2021/12/05 13:34:31;;;;;;;14.30;8.55;;;4.70;99.90;;;;;;4910342;29;20063;-78
2021/12/05 13:37:06;;;;;;;16.02;8.65;;;4.80;99.90;;;;;;4916799;29;20134;-78
2021/12/05 13:39:46;;;;;;;15.40;8.95;;;4.80;99.90;;;;;;4928270;29;20134;-77
2021/12/05 13:42:22;;;;;;;16.45;10.32;;;4.80;99.90;;;;;;4932517;29;20035;-77
2021/12/05 13:45:04;;;;;;;14.68;8.52;;;4.70;99.90;;;;;;4926732;29;20091;-77
2021/12/05 13:47:42;;;;;;;15.63;9.68;;;4.70;99.90;;;;;;4928615;29;20055;-78
2021/12/05 13:50:22;;;;;;;15.48;8.85;;;4.80;99.90;;;;;;4931446;29;20086;-77
2021/12/05 13:53:03;;;;;;;15.93;8.70;;;5.80;99.90;;;;;;4928742;29;20393;-77
2021/12/05 13:56:04;;;;;;;12.98;8.25;;;4.80;99.90;;;;;;4917846;29;20051;-78
2021/12/05 13:58:40;;;;;;;13.23;7.88;;;4.80;99.90;;;;;;4929191;29;20094;-78
2021/12/05 14:01:15;;;;;;;16.83;7.82;;;5.30;99.90;;;;;;4925648;29;20531;-77
2021/12/05 14:03:46;;;;;;;16.40;8.38;;;4.80;99.90;;;;;;4925443;29;20050;-78
2021/12/05 14:06:31;;;;;;;12.65;8.20;;;4.80;99.90;;;;;;4908374;29;20052;-77
2021/12/05 14:09:21;;;;;;;13.57;8.10;;;4.80;99.90;;;;;;4908698;29;20055;-78
2021/12/05 14:12:13;;;;;;;15.20;8.35;;;4.90;99.90;;;;;;4906747;29;20047;-77
2021/12/05 14:14:41;;;;;;;16.13;8.32;;;4.90;99.90;;;;;;4908631;29;20461;-78
2021/12/05 14:17:18;;;;;;;14.63;8.45;;;5.00;99.90;;;;;;4924312;29;20161;-77
2021/12/05 14:19:52;;;;;;;12.73;7.63;;;5.00;99.90;;;;;;4913511;29;20051;-79
2021/12/05 14:22:21;;;;;;;16.30;8.63;;;5.10;99.90;;;;;;4923157;29;20055;-80
2021/12/05 14:24:50;;;;;;;15.18;8.50;;;5.10;99.90;;;;;;4928919;29;20040;-78
2021/12/05 14:27:23;;;;;;;22.58;13.82;;;5.10;99.90;;;;;;4922240;29;20410;-77
2021/12/05 14:29:50;;;;;;;16.27;9.80;;;6.20;99.90;;;;;;4921879;29;20147;-77
2021/12/05 14:32:24;;;;;;;14.60;8.65;;;5.20;99.90;;;;;;4923045;29;20060;-77
2021/12/05 14:34:52;;;;;;;17.30;9.57;;;5.20;99.90;;;;;;4924216;29;20059;-77
2021/12/05 14:37:20;;;;;;;15.45;8.43;;;5.20;99.90;;;;;;4919314;29;20056;-77
2021/12/05 14:40:10;;;;;;;12.63;7.40;;;5.20;99.90;;;;;;4923030;29;20058;-78
2021/12/05 14:42:46;;;;;;;10.55;7.40;;;5.20;99.90;;;;;;4928964;29;20074;-77
2021/12/05 14:45:18;;;;;;;10.30;7.10;;;5.20;99.90;;;;;;4914084;29;20043;-78
2021/12/05 14:47:45;;;;;;;13.43;8.25;;;5.20;99.90;;;;;;4925029;29;20047;-79
2021/12/05 14:50:23;;;;;;;12.35;8.18;;;5.20;99.90;;;;;;4941700;29;20065;-77
2021/12/05 14:52:52;;;;;;;11.38;7.72;;;5.10;99.90;;;;;;4924354;29;20410;-77
2021/12/05 14:55:20;;;;;;;9.75;7.35;;;5.50;99.90;;;;;;4924649;29;20160;-77
2021/12/05 14:57:50;;;;;;;11.82;8.15;;;5.10;99.90;;;;;;4910142;29;20064;-77
2021/12/05 15:00:22;;;;;;;11.52;8.48;;;5.10;99.90;;;;;;4919042;29;20123;-77
2021/12/05 15:02:49;;;;;;;15.55;9.40;;;5.10;99.90;;;;;;4906275;29;20059;-77
2021/12/05 15:05:17;;;;;;;16.73;9.07;;;5.20;99.90;;;;;;4908426;29;20052;-77
2021/12/05 15:07:44;;;;;;;13.52;9.60;;;5.40;99.90;;;;;;4888470;29;20319;-77
2021/12/05 15:10:11;;;;;;;14.45;8.75;;;5.10;99.90;;;;;;4885027;29;20074;-79
2021/12/05 15:12:37;;;;;;;14.60;8.70;;;5.00;99.90;;;;;;4905598;29;20086;-77
2021/12/05 15:15:11;;;;;;;11.23;7.55;;;5.00;99.90;;;;;;4884024;29;20056;-77
2021/12/05 15:17:40;;;;;;;14.20;9.38;;;5.00;99.90;;;;;;4919996;29;20052;-78
2021/12/05 15:20:16;;;;;;;13.70;8.60;;;5.00;99.90;;;;;;4891029;29;20190;-77
2021/12/05 15:22:54;;;;;;;18.73;11.18;;;4.90;99.90;;;;;;4905964;29;20044;-80
2021/12/05 15:25:24;;;;;;;13.45;9.32;;;4.90;99.90;;;;;;4908297;29;20396;-77
2021/12/05 15:27:50;;;;;;;14.48;8.55;;;4.90;99.90;;;;;;4911718;29;20056;-77
2021/12/05 15:30:21;;;;;;;15.80;8.60;;;5.00;99.90;;;;;;4908506;29;20509;-76
2021/12/05 15:32:53;;;;;;;14.02;9.15;;;4.90;99.90;;;;;;4906812;29;20055;-76
2021/12/05 15:35:21;;;;;;;14.60;8.65;;;4.20;99.90;;;;;;4905166;29;20052;-76
2021/12/05 15:37:56;;;;;;;13.77;8.40;;;4.80;99.90;;;;;;4906110;29;20055;-76
2021/12/05 15:40:24;;;;;;;12.98;9.18;;;4.80;99.90;;;;;;4907179;29;20044;-77
2021/12/05 15:42:50;;;;;;;15.57;8.60;;;4.80;99.90;;;;;;4890942;29;20135;-77
2021/12/05 15:45:19;;;;;;;14.30;8.82;;;4.90;99.90;;;;;;4904962;29;20063;-77
2021/12/05 15:47:47;;;;;;;12.27;8.50;;;5.00;99.90;;;;;;4890029;29;20423;-76
2021/12/05 15:50:19;;;;;;;13.48;9.57;;;4.80;99.90;;;;;;4893256;29;20056;-76
2021/12/05 15:52:50;;;;;;;18.20;9.40;;;4.70;99.90;;;;;;4904044;29;20047;-78
2021/12/05 15:55:36;;;;;;;14.07;9.18;;;4.70;99.90;;;;;;4911132;29;20524;-77
2021/12/05 15:58:22;;;;;;;15.15;9.82;;;4.70;99.90;;;;;;4918419;29;20071;-79
2021/12/05 16:00:59;;;;;;;15.85;9.95;;;4.70;99.90;;;;;;4927637;29;20185;-78
2021/12/05 16:03:27;;;;;;;18.35;9.75;;;4.70;99.90;;;;;;4907604;29;20052;-78
2021/12/05 16:06:00;;;;;;;19.50;10.30;;;4.80;99.90;;;;;;4908897;29;20058;-78
2021/12/05 16:08:32;;;;;;;17.90;10.43;;;4.60;99.90;;;;;;4923730;29;20050;-80
2021/12/05 16:10:59;;;;;;;18.50;9.70;;;4.70;99.90;;;;;;4929888;29;20052;-78
2021/12/05 16:13:34;;;;;;;13.60;9.45;;;4.60;99.90;;;;;;4912367;29;20071;-80
2021/12/05 16:16:27;;;;;;;17.42;9.73;;;4.60;99.90;;;;;;4924225;29;20048;-78
2021/12/05 16:18:57;;;;;;;18.65;9.77;;;4.90;99.90;;;;;;4921012;29;20051;-78
2021/12/05 16:21:34;;;;;;;21.20;10.07;;;4.60;99.90;;;;;;4923807;29;20044;-78
2021/12/05 16:24:09;;;;;;;14.00;9.48;;;4.40;99.90;;;;;;4927843;29;20394;-78
2021/12/05 16:26:35;;;;;;;15.25;9.45;;;4.90;99.90;;;;;;4922102;29;20832;-77
2021/12/05 16:29:05;;;;;;;18.20;9.95;;;5.40;99.90;;;;;;4904531;29;20052;-79
2021/12/05 16:31:36;;;;;;;15.30;9.77;;;4.60;99.90;;;;;;4920750;29;20062;-77
2021/12/05 16:34:13;;;;;;;15.68;9.90;;;4.60;99.90;;;;;;4910588;29;20070;-80
2021/12/05 16:36:47;;;;;;;17.08;10.13;;;4.60;99.90;;;;;;4920041;29;20059;-77
2021/12/05 16:39:42;;;;;;;18.25;11.48;;;4.60;99.90;;;;;;4924554;29;20390;-77
2021/12/05 16:42:26;;;;;;;15.55;10.27;;;4.60;99.90;;;;;;4910282;29;20256;-77
2021/12/05 16:44:58;;;;;;;17.58;10.32;;;4.60;99.90;;;;;;4908593;29;20080;-77
2021/12/05 16:47:28;;;;;;;18.77;11.10;;;4.60;99.90;;;;;;4921685;29;20051;-78
2021/12/05 16:49:57;;;;;;;18.55;10.85;;;4.60;99.90;;;;;;4922286;29;20048;-78
2021/12/05 16:52:29;;;;;;;17.58;10.77;;;4.60;99.90;;;;;;4922659;29;20043;-78
2021/12/05 16:55:03;;;;;;;19.77;11.98;;;4.60;99.90;;;;;;4922846;29;20531;-78
2021/12/05 16:57:44;;;;;;;24.70;12.77;;;4.50;99.90;;;;;;4910122;29;20544;-80
2021/12/05 17:00:25;;;;;;;25.65;13.52;;;4.50;99.90;;;;;;4945327;29;20058;-77
2021/12/05 17:02:54;;;;;;;21.17;12.65;;;5.50;99.90;;;;;;4927054;29;20047;-78
2021/12/05 17:05:32;;;;;;;23.38;12.40;;;4.70;99.90;;;;;;4926563;28;20051;-76
2021/12/05 17:08:10;;;;;;;28.05;15.27;;;4.50;99.90;;;;;;4926944;29;20051;-77
2021/12/05 17:10:39;;;;;;;26.52;13.48;;;4.50;99.90;;;;;;4925559;29;20047;-76
2021/12/05 17:13:14;;;;;;;21.45;12.73;;;4.50;99.90;;;;;;4925613;29;20086;-76
2021/12/05 17:16:05;;;;;;;26.20;13.27;;;4.50;99.90;;;;;;4916188;29;20051;-76
2021/12/05 17:18:55;;;;;;;28.98;14.27;;;4.50;99.90;;;;;;4923468;29;20051;-79
2021/12/05 17:21:29;;;;;;;24.95;13.18;;;4.50;99.90;;;;;;4924403;29;20056;-78
2021/12/05 17:24:06;;;;;;;22.25;11.93;;;4.50;99.90;;;;;;4931121;29;20062;-77
2021/12/05 17:26:36;;;;;;;21.33;11.35;;;4.50;99.90;;;;;;4925993;29;20051;-79
2021/12/05 17:29:12;;;;;;;19.27;11.15;;;4.50;99.90;;;;;;4928482;29;20051;-77
2021/12/05 17:31:50;;;;;;;20.13;11.23;;;4.50;99.90;;;;;;4928687;29;20167;-77
2021/12/05 17:34:25;;;;;;;19.70;10.75;;;4.50;99.90;;;;;;4934405;29;20055;-76
2021/12/05 17:36:55;;;;;;;21.35;11.40;;;4.50;99.90;;;;;;4929036;29;20051;-78
2021/12/05 17:39:25;;;;;;;18.73;11.55;;;4.50;99.90;;;;;;4934070;28;20063;-77
2021/12/05 17:41:55;;;;;;;21.55;12.13;;;4.50;99.90;;;;;;4938110;29;20100;-77
2021/12/05 17:44:23;;;;;;;21.83;12.30;;;4.50;99.90;;;;;;4942000;29;20214;-78
2021/12/05 17:46:52;;;;;;;18.90;11.65;;;4.60;99.90;;;;;;4929512;29;20140;-78
2021/12/05 17:49:21;;;;;;;20.52;11.93;;;4.50;99.90;;;;;;4927299;29;20122;-77
2021/12/05 17:51:46;;;;;;;20.60;12.15;;;4.50;99.90;;;;;;4932188;29;20397;-77
2021/12/05 17:54:23;;;;;;;23.58;12.52;;;4.50;99.90;;;;;;4930464;29;20048;-76
2021/12/05 17:56:52;;;;;;;19.52;12.02;;;4.60;99.90;;;;;;4930523;29;20047;-77
2021/12/05 17:59:29;;;;;;;20.63;12.80;;;5.20;99.90;;;;;;4929726;29;20051;-77
2021/12/05 18:04:45;;;;;;;23.48;13.82;;;4.50;99.90;;;;;;4930942;29;20441;-79
2021/12/05 18:07:11;;;;;;;23.75;13.73;;;4.50;99.90;;;;;;4930743;29;20039;-77
2021/12/05 18:09:38;;;;;;;20.25;13.27;;;4.50;99.90;;;;;;4907557;29;20055;-81
2021/12/05 18:12:07;;;;;;;26.25;14.00;;;4.90;99.90;;;;;;4914513;29;20050;-78
2021/12/05 18:14:36;;;;;;;26.30;14.65;;;4.50;99.90;;;;;;4912861;29;20102;-78
2021/12/05 18:17:03;;;;;;;26.33;14.73;;;4.50;99.90;;;;;;4927356;29;20047;-76
2021/12/05 18:19:29;;;;;;;22.52;13.80;;;4.50;99.90;;;;;;4925108;29;20527;-78
2021/12/05 18:21:54;;;;;;;23.23;13.32;;;4.40;99.90;;;;;;4925759;29;20070;-77
2021/12/05 18:24:21;;;;;;;25.33;15.32;;;4.80;99.90;;;;;;4912262;29;20135;-78
2021/12/05 18:26:49;;;;;;;24.27;14.40;;;4.40;99.90;;;;;;4929522;29;20050;-77
2021/12/05 18:29:17;;;;;;;23.45;14.10;;;4.40;99.90;;;;;;4934667;29;20055;-78
2021/12/05 18:31:44;;;;;;;25.42;14.68;;;4.50;99.90;;;;;;4936131;29;20568;-78